createdAt,value
2023-06-16T00:01:16.337Z,8.93
2023-06-16T00:03:44.998Z,10.25
2023-06-16T00:06:15.466Z,7.68
2023-06-16T00:08:46.115Z,8.65
2023-06-16T00:11:14.919Z,9.25
2023-06-16T00:13:43.328Z,6.78
2023-06-16T00:16:14.208Z,9.50
2023-06-16T00:18:45.248Z,8.88
2023-06-16T00:21:15.577Z,9.05
2023-06-16T00:23:43.055Z,9.30
2023-06-16T00:26:10.309Z,9.23
2023-06-16T00:28:37.549Z,9.55
2023-06-16T00:31:04.795Z,9.90
2023-06-16T00:33:31.972Z,11.27
2023-06-16T00:36:00.312Z,10.43
2023-06-16T00:38:28.814Z,11.90
2023-06-16T00:40:56.277Z,11.18
2023-06-16T00:43:23.504Z,11.20
2023-06-16T00:45:51.491Z,11.27
2023-06-16T00:48:18.999Z,12.27
2023-06-16T00:50:46.702Z,10.55
2023-06-16T00:53:14.356Z,11.25
2023-06-16T00:55:42.167Z,13.10
2023-06-16T00:58:09.381Z,12.02
2023-06-16T01:00:39.469Z,12.80
2023-06-16T01:03:10.387Z,12.90
2023-06-16T01:05:37.997Z,12.32
2023-06-16T01:08:12.672Z,12.23
2023-06-16T01:10:55.348Z,12.77
2023-06-16T01:13:43.418Z,11.55
2023-06-16T01:16:12.302Z,12.02
2023-06-16T01:18:45.340Z,11.82
2023-06-16T01:21:43.237Z,14.85
2023-06-16T01:24:15.190Z,14.07
2023-06-16T01:26:48.713Z,13.95
2023-06-16T01:29:16.256Z,11.20
2023-06-16T01:31:45.182Z,12.75
2023-06-16T01:34:13.598Z,16.02
2023-06-16T01:36:42.980Z,13.50
2023-06-16T01:39:16.178Z,12.13
2023-06-16T01:41:44.305Z,15.40
2023-06-16T01:44:12.042Z,13.52
2023-06-16T01:46:39.563Z,11.82
2023-06-16T01:49:07.366Z,15.73
2023-06-16T01:51:34.803Z,12.40
2023-06-16T01:54:02.049Z,15.68
2023-06-16T01:56:30.699Z,13.68
2023-06-16T01:58:58.334Z,13.68
2023-06-16T02:01:31.065Z,13.57
2023-06-16T02:04:07.833Z,16.25
2023-06-16T02:06:57.280Z,13.75
2023-06-16T02:09:27.143Z,12.60
2023-06-16T02:11:56.058Z,14.82
2023-06-16T02:14:23.600Z,15.43
2023-06-16T02:16:52.067Z,15.80
2023-06-16T02:19:19.325Z,16.48
2023-06-16T02:21:46.925Z,13.65
2023-06-16T02:24:14.134Z,14.05
2023-06-16T02:26:41.411Z,13.05
2023-06-16T02:29:08.601Z,12.95
2023-06-16T02:31:35.915Z,15.27
2023-06-16T02:34:03.117Z,14.10
2023-06-16T02:36:30.571Z,13.15
2023-06-16T02:38:57.994Z,16.92
2023-06-16T02:41:25.209Z,12.18
2023-06-16T02:43:52.489Z,16.60
2023-06-16T02:46:19.717Z,14.85
2023-06-16T02:48:47.087Z,14.85
2023-06-16T02:51:14.410Z,14.82
2023-06-16T02:53:42.765Z,13.13
2023-06-16T02:56:09.980Z,14.68
2023-06-16T02:58:37.249Z,14.05
2023-06-16T03:01:05.739Z,14.88
2023-06-16T03:03:33.989Z,14.82
2023-06-16T03:06:01.732Z,16.27
2023-06-16T03:08:29.513Z,14.07
2023-06-16T03:10:56.732Z,16.25
2023-06-16T03:13:23.943Z,14.40
2023-06-16T03:15:52.053Z,15.00
2023-06-16T03:18:19.466Z,16.38
2023-06-16T03:20:48.582Z,16.30
2023-06-16T03:23:16.240Z,16.35
2023-06-16T03:25:43.386Z,16.60
2023-06-16T03:28:10.608Z,15.60
2023-06-16T03:30:37.786Z,16.58
2023-06-16T03:33:05.141Z,16.73
2023-06-16T03:35:32.359Z,17.85
2023-06-16T03:37:59.538Z,15.50
2023-06-16T03:40:26.714Z,16.42
2023-06-16T03:42:54.015Z,14.68
2023-06-16T03:45:21.362Z,18.17
2023-06-16T03:47:48.578Z,19.55
2023-06-16T03:50:15.950Z,18.60
2023-06-16T03:52:43.268Z,17.42
2023-06-16T03:55:10.520Z,16.00
2023-06-16T03:57:40.471Z,16.42
2023-06-16T04:00:11.575Z,16.92
2023-06-16T04:02:38.843Z,15.65
2023-06-16T04:05:07.398Z,16.48
2023-06-16T04:07:35.617Z,17.40
2023-06-16T04:10:03.672Z,18.30
2023-06-16T04:12:30.860Z,15.88
2023-06-16T04:14:59.078Z,16.20
2023-06-16T04:17:26.325Z,13.57
2023-06-16T04:19:53.589Z,17.42
2023-06-16T04:22:20.872Z,15.05
2023-06-16T04:24:48.148Z,14.45
2023-06-16T04:27:16.461Z,14.75
2023-06-16T04:29:43.822Z,14.23
2023-06-16T04:32:12.584Z,16.55
2023-06-16T04:34:40.196Z,14.77
2023-06-16T04:37:10.945Z,14.57
2023-06-16T04:39:38.958Z,15.70
2023-06-16T04:42:09.194Z,13.48
2023-06-16T04:44:37.032Z,15.23
2023-06-16T04:47:04.491Z,16.42
2023-06-16T04:49:32.151Z,15.48
2023-06-16T04:51:59.472Z,16.10
2023-06-16T04:54:27.134Z,15.90
2023-06-16T04:56:54.328Z,17.55
2023-06-16T04:59:23.669Z,17.20
2023-06-16T05:01:51.388Z,16.77
2023-06-16T05:04:18.883Z,16.75
2023-06-16T05:06:46.088Z,18.73
2023-06-16T05:09:13.447Z,18.90
2023-06-16T05:11:40.993Z,15.30
2023-06-16T05:14:08.297Z,18.30
2023-06-16T05:16:36.011Z,18.02
2023-06-16T05:19:04.154Z,15.85
2023-06-16T05:21:31.551Z,16.30
2023-06-16T05:24:01.517Z,20.23
2023-06-16T05:26:29.021Z,17.77
2023-06-16T05:28:56.163Z,15.93
2023-06-16T05:31:23.406Z,17.58
2023-06-16T05:33:50.767Z,21.60
2023-06-16T05:36:18.038Z,17.80
2023-06-16T05:38:45.511Z,19.05
2023-06-16T05:41:12.657Z,17.13
2023-06-16T05:43:39.860Z,19.40
2023-06-16T05:46:06.973Z,18.27
2023-06-16T05:48:34.095Z,17.42
2023-06-16T05:51:01.275Z,19.15
2023-06-16T05:53:28.733Z,20.35
2023-06-16T05:55:58.843Z,18.25
2023-06-16T05:58:26.367Z,17.25
2023-06-16T06:00:53.542Z,19.10
2023-06-16T06:03:21.555Z,19.33
2023-06-16T06:05:49.074Z,21.10
2023-06-16T06:08:16.312Z,19.02
2023-06-16T06:10:43.494Z,16.77
2023-06-16T06:13:10.935Z,19.27
2023-06-16T06:15:38.173Z,17.27
2023-06-16T06:18:08.172Z,19.30
2023-06-16T06:20:35.419Z,16.77
2023-06-16T06:23:02.612Z,16.50
2023-06-16T06:25:29.929Z,17.92
2023-06-16T06:27:57.237Z,17.40
2023-06-16T06:30:26.124Z,17.40
2023-06-16T06:32:53.340Z,16.85
2023-06-16T06:35:20.565Z,17.70
2023-06-16T06:37:47.762Z,17.25
2023-06-16T06:40:15.014Z,14.98
2023-06-16T06:42:42.198Z,15.10
2023-06-16T06:45:11.732Z,14.70
2023-06-16T06:47:39.196Z,14.55
2023-06-16T06:50:07.273Z,14.57
2023-06-16T06:52:34.536Z,13.57
2023-06-16T06:55:01.909Z,13.85
2023-06-16T06:57:29.369Z,16.55
2023-06-16T06:59:56.539Z,14.45
2023-06-16T07:02:25.166Z,15.32
2023-06-16T07:04:52.484Z,16.48
2023-06-16T07:07:19.783Z,15.25
2023-06-16T07:09:46.935Z,15.48
2023-06-16T07:12:14.110Z,17.33
2023-06-16T07:14:41.424Z,14.50
2023-06-16T07:17:08.588Z,13.57
2023-06-16T07:19:35.908Z,13.75
2023-06-16T07:22:03.184Z,16.67
2023-06-16T07:24:30.492Z,14.43
2023-06-16T07:26:57.793Z,12.35
2023-06-16T07:29:24.963Z,14.05
2023-06-16T07:31:52.218Z,12.98
2023-06-16T07:34:19.920Z,14.77
2023-06-16T07:36:47.340Z,15.38
2023-06-16T07:39:19.000Z,13.15
2023-06-16T07:41:46.196Z,13.60
2023-06-16T07:44:13.441Z,14.40
2023-06-16T07:46:41.468Z,10.48
2023-06-16T07:49:08.694Z,14.63
2023-06-16T07:51:36.505Z,11.27
2023-06-16T07:54:04.627Z,10.95
2023-06-16T07:56:31.801Z,12.35
2023-06-16T07:58:59.106Z,14.32
2023-06-16T08:01:26.304Z,12.10
2023-06-16T08:03:54.013Z,12.02
2023-06-16T08:06:21.416Z,10.02
2023-06-16T08:08:48.939Z,9.75
2023-06-16T08:11:16.304Z,10.70
2023-06-16T08:13:43.549Z,10.55
2023-06-16T08:16:10.848Z,11.30
2023-06-16T08:18:39.116Z,9.85
2023-06-16T08:21:09.347Z,10.57
2023-06-16T08:23:36.798Z,11.63
2023-06-16T08:26:06.288Z,11.32
2023-06-16T08:28:33.471Z,9.35
2023-06-16T08:31:00.805Z,8.75
2023-06-16T08:33:28.080Z,11.18
2023-06-16T08:35:55.391Z,12.70
2023-06-16T08:38:22.710Z,11.68
2023-06-16T08:40:50.274Z,9.80
2023-06-16T08:43:17.979Z,14.88
2023-06-16T08:45:46.645Z,10.95
2023-06-16T08:48:14.720Z,9.45
2023-06-16T08:50:42.215Z,10.75
2023-06-16T08:53:12.610Z,7.75
2023-06-16T08:55:42.165Z,8.07
2023-06-16T08:58:12.968Z,9.00
2023-06-16T09:00:42.066Z,10.43
2023-06-16T09:03:09.852Z,9.40
2023-06-16T09:05:37.859Z,10.82
2023-06-16T09:08:06.831Z,11.23
2023-06-16T09:10:36.844Z,12.68
2023-06-16T09:13:04.239Z,11.45
2023-06-16T09:15:35.299Z,8.50
2023-06-16T09:18:07.778Z,8.02
2023-06-16T09:20:39.399Z,11.33
2023-06-16T09:23:06.592Z,8.63
2023-06-16T09:25:35.557Z,13.13
2023-06-16T09:28:10.915Z,10.35
2023-06-16T09:30:42.401Z,8.80
2023-06-16T09:33:11.506Z,9.25
2023-06-16T09:35:41.816Z,8.60
2023-06-16T09:38:11.465Z,9.63
2023-06-16T09:40:40.161Z,7.45
2023-06-16T09:43:27.257Z,8.38
2023-06-16T09:46:15.680Z,9.85
2023-06-16T09:49:05.806Z,8.98
2023-06-16T09:51:54.276Z,10.95
2023-06-16T09:54:41.386Z,9.88
2023-06-16T09:57:29.079Z,7.75
2023-06-16T10:00:20.007Z,11.13
2023-06-16T10:03:11.100Z,9.38
2023-06-16T10:06:04.687Z,9.32
2023-06-16T10:08:53.201Z,7.78
2023-06-16T10:11:40.912Z,6.95
2023-06-16T10:14:32.674Z,10.02
2023-06-16T10:17:21.515Z,8.00
2023-06-16T10:20:15.041Z,9.13
2023-06-16T10:23:02.539Z,9.38
2023-06-16T10:25:50.649Z,9.32
2023-06-16T10:28:37.998Z,10.60
2023-06-16T10:31:29.131Z,17.40
2023-06-16T10:34:21.087Z,7.55
2023-06-16T10:36:50.388Z,8.93
2023-06-16T10:39:18.034Z,8.07
2023-06-16T10:41:57.018Z,9.80
2023-06-16T10:44:28.224Z,9.23
2023-06-16T10:47:11.072Z,10.98
2023-06-16T10:50:17.813Z,9.00
2023-06-16T10:52:45.118Z,10.75
2023-06-16T10:55:39.348Z,7.57
2023-06-16T10:58:20.284Z,8.45
2023-06-16T11:00:59.971Z,8.45
2023-06-16T11:03:43.896Z,10.40
2023-06-16T11:06:12.102Z,8.93
2023-06-16T11:09:00.210Z,8.77
2023-06-16T11:11:34.570Z,9.65
2023-06-16T11:14:02.638Z,9.20
2023-06-16T11:16:30.126Z,12.77
2023-06-16T11:18:59.180Z,8.45
2023-06-16T11:21:31.748Z,9.98
2023-06-16T11:24:09.852Z,7.70
2023-06-16T11:26:37.521Z,8.85
2023-06-16T11:29:08.619Z,8.02
2023-06-16T11:31:37.326Z,7.72
2023-06-16T11:34:13.027Z,6.85
2023-06-16T11:36:49.403Z,7.85
2023-06-16T11:39:18.583Z,9.32
2023-06-16T11:41:57.581Z,8.23
2023-06-16T11:44:29.014Z,8.88
2023-06-16T11:46:56.965Z,10.57
2023-06-16T11:49:25.240Z,7.90
2023-06-16T11:51:53.156Z,10.20
2023-06-16T11:54:22.225Z,8.23
2023-06-16T11:56:52.258Z,7.55
2023-06-16T11:59:20.244Z,9.25
2023-06-16T12:01:48.206Z,11.85
2023-06-16T12:04:15.785Z,10.13
2023-06-16T12:06:43.215Z,11.38
2023-06-16T12:09:10.675Z,7.57
2023-06-16T12:11:37.959Z,10.90
2023-06-16T12:14:05.168Z,7.15
2023-06-16T12:16:32.546Z,8.43
2023-06-16T12:19:00.362Z,9.43
2023-06-16T12:21:31.876Z,7.18
2023-06-16T12:24:01.372Z,8.55
2023-06-16T12:26:41.693Z,8.70
2023-06-16T12:29:16.745Z,7.78
2023-06-16T12:31:55.943Z,8.65
2023-06-16T12:34:37.345Z,7.18
2023-06-16T12:37:08.197Z,7.68
2023-06-16T12:39:35.953Z,8.88
2023-06-16T12:42:06.094Z,14.18
2023-06-16T12:44:45.271Z,8.73
2023-06-16T12:47:13.860Z,8.25
2023-06-16T12:49:41.249Z,8.43
2023-06-16T12:52:11.333Z,9.30
2023-06-16T12:54:38.827Z,7.50
2023-06-16T12:57:06.404Z,7.70
2023-06-16T12:59:34.240Z,7.05
2023-06-16T13:02:01.661Z,7.68
2023-06-16T13:04:29.598Z,7.32
2023-06-16T13:06:57.331Z,9.23
2023-06-16T13:09:24.619Z,6.72
2023-06-16T13:11:54.591Z,6.97
2023-06-16T13:14:23.325Z,7.53
2023-06-16T13:16:51.317Z,8.35
2023-06-16T13:19:18.748Z,6.40
2023-06-16T13:21:46.077Z,5.55
2023-06-16T13:24:13.633Z,7.43
2023-06-16T13:26:41.562Z,11.00
2023-06-16T13:29:09.616Z,7.00
2023-06-16T13:31:36.817Z,5.78
2023-06-16T13:34:04.271Z,7.03
2023-06-16T13:36:31.516Z,7.18
2023-06-16T13:38:58.698Z,7.88
2023-06-16T13:41:28.582Z,8.27
2023-06-16T13:43:56.095Z,7.88
2023-06-16T13:46:23.449Z,10.30
2023-06-16T13:48:50.851Z,8.48
2023-06-16T13:51:18.126Z,7.68
2023-06-16T13:53:45.424Z,8.50
2023-06-16T13:56:12.848Z,13.52
2023-06-16T13:58:40.108Z,5.68
2023-06-16T14:01:07.510Z,8.32
2023-06-16T14:03:34.953Z,7.10
2023-06-16T14:06:02.877Z,6.72
2023-06-16T14:08:30.627Z,7.97
2023-06-16T14:10:58.296Z,9.90
2023-06-16T14:13:26.077Z,10.05
2023-06-16T14:15:53.389Z,7.32
2023-06-16T14:18:20.723Z,6.78
2023-06-16T14:20:48.014Z,8.63
2023-06-16T14:23:18.101Z,10.90
2023-06-16T14:25:46.848Z,6.90
2023-06-16T14:28:15.788Z,8.27
2023-06-16T14:30:43.420Z,6.80
2023-06-16T14:33:12.055Z,9.38
2023-06-16T14:35:40.166Z,6.90
2023-06-16T14:38:07.525Z,7.45
2023-06-16T14:40:37.816Z,7.65
2023-06-16T16:25:34.554Z,7.78
2023-06-16T16:28:02.099Z,9.32
2023-06-16T16:30:29.634Z,7.85
2023-06-16T16:32:57.021Z,6.57
2023-06-16T16:35:24.572Z,8.18
2023-06-16T16:37:51.894Z,10.48
2023-06-16T16:40:19.424Z,8.77
2023-06-16T16:42:47.895Z,8.07
2023-06-16T16:45:16.187Z,7.95
2023-06-16T16:47:43.717Z,7.85
2023-06-16T16:50:11.535Z,8.45
2023-06-16T16:52:39.349Z,7.28
2023-06-16T16:55:06.855Z,6.85
2023-06-16T16:57:34.314Z,7.93
2023-06-16T17:00:01.554Z,7.60
2023-06-16T17:02:29.324Z,9.43
2023-06-16T17:04:56.821Z,8.77
2023-06-16T17:07:24.421Z,7.72
2023-06-16T17:09:51.601Z,8.18
2023-06-16T17:12:18.869Z,9.35
2023-06-16T17:14:46.123Z,6.93
2023-06-16T17:17:13.616Z,8.60
2023-06-16T17:19:40.984Z,9.50
2023-06-16T17:22:08.159Z,8.38
2023-06-16T17:24:35.585Z,10.05
2023-06-16T17:27:02.865Z,9.63
2023-06-16T17:29:30.121Z,11.98
2023-06-16T17:31:57.439Z,7.25
2023-06-16T17:34:27.220Z,8.10
2023-06-16T17:36:58.797Z,9.35
2023-06-16T17:39:26.414Z,9.52
2023-06-16T17:41:55.537Z,6.53
2023-06-16T17:44:24.046Z,9.07
2023-06-16T17:46:51.763Z,8.30
2023-06-16T17:49:20.998Z,8.82
2023-06-16T17:51:48.335Z,7.97
2023-06-16T17:54:15.910Z,7.57
2023-06-16T17:56:43.258Z,9.75
2023-06-16T17:59:10.649Z,10.23
2023-06-16T18:01:39.594Z,8.98
2023-06-16T18:04:06.779Z,8.27
2023-06-16T18:06:33.967Z,8.43
2023-06-16T18:09:01.410Z,9.73
2023-06-16T18:11:29.038Z,6.35
2023-06-16T18:13:56.319Z,11.77
2023-06-16T18:16:24.539Z,8.73
2023-06-16T18:18:51.980Z,7.63
2023-06-16T18:21:19.390Z,7.50
2023-06-16T18:23:46.595Z,8.10
2023-06-16T18:26:13.929Z,8.45
2023-06-16T18:28:41.171Z,8.70
2023-06-16T18:31:08.397Z,6.75
2023-06-16T18:33:36.624Z,6.65
2023-06-16T18:36:03.955Z,9.55
2023-06-16T18:38:31.149Z,8.88
2023-06-16T18:40:58.360Z,8.73
2023-06-16T18:43:28.207Z,7.35
2023-06-16T18:45:56.069Z,7.57
2023-06-16T18:48:26.681Z,7.05
2023-06-16T18:50:54.515Z,9.68
2023-06-16T18:53:23.534Z,8.10
2023-06-16T18:55:52.025Z,7.47
2023-06-16T18:58:19.187Z,8.38
2023-06-16T19:00:46.473Z,8.13
2023-06-16T19:03:13.876Z,9.00
2023-06-16T19:05:42.868Z,7.95
2023-06-16T19:08:15.647Z,11.55
2023-06-16T19:10:42.965Z,7.57
2023-06-16T19:13:10.775Z,8.63
2023-06-16T19:15:38.600Z,8.50
2023-06-16T19:18:06.090Z,9.85
2023-06-16T19:20:33.324Z,6.60
2023-06-16T19:23:01.101Z,7.05
2023-06-16T19:25:28.770Z,12.10
2023-06-16T19:27:56.043Z,7.43
2023-06-16T19:30:23.510Z,8.20
2023-06-16T19:32:51.035Z,7.18
2023-06-16T19:35:20.553Z,7.63
2023-06-16T19:37:47.719Z,8.50
2023-06-16T19:40:15.430Z,11.40
2023-06-16T19:42:42.918Z,10.18
2023-06-16T19:45:10.857Z,8.60
2023-06-16T19:47:39.137Z,8.35
2023-06-16T19:50:07.034Z,9.65
2023-06-16T19:52:34.613Z,9.93
2023-06-16T19:55:02.023Z,8.80
2023-06-16T19:57:29.479Z,9.88
2023-06-16T19:59:56.761Z,11.05
2023-06-16T20:02:24.093Z,9.98
2023-06-16T20:04:53.076Z,8.82
2023-06-16T20:07:22.096Z,11.00
2023-06-16T20:09:49.427Z,10.48
2023-06-16T20:12:16.634Z,9.45
2023-06-16T20:14:43.947Z,11.10
2023-06-16T20:17:11.148Z,11.07
2023-06-16T20:19:40.234Z,10.88
2023-06-16T20:22:07.663Z,11.00
2023-06-16T20:24:35.047Z,9.73
2023-06-16T20:27:02.306Z,9.93
2023-06-16T20:29:29.889Z,12.05
2023-06-16T20:31:57.232Z,10.77
2023-06-16T20:34:24.413Z,12.02
2023-06-16T20:36:51.633Z,9.68
2023-06-16T20:39:19.311Z,12.02
2023-06-16T20:41:46.543Z,11.20
2023-06-16T20:44:16.048Z,12.02
2023-06-16T20:46:43.965Z,12.25
2023-06-16T20:49:11.369Z,11.10
2023-06-16T20:51:38.657Z,12.13
2023-06-16T20:54:08.561Z,11.05
2023-06-16T20:56:36.041Z,11.30
2023-06-16T20:59:03.865Z,11.30
2023-06-16T21:01:41.063Z,11.32
2023-06-16T21:04:13.059Z,11.25
2023-06-16T21:06:41.763Z,12.52
2023-06-16T21:09:11.782Z,9.43
2023-06-16T21:11:39.229Z,12.10
2023-06-16T21:14:07.482Z,14.77
2023-06-16T21:16:34.942Z,11.45
2023-06-16T21:19:02.741Z,12.48
2023-06-16T21:21:30.046Z,14.18
2023-06-16T21:23:58.464Z,12.95
2023-06-16T21:26:26.237Z,13.32
2023-06-16T21:28:53.677Z,13.70
2023-06-16T21:31:21.280Z,13.75
2023-06-16T21:33:48.530Z,11.45
2023-06-16T21:36:15.931Z,11.52
2023-06-16T21:38:45.088Z,13.25
2023-06-16T21:41:12.362Z,13.18
2023-06-16T21:43:39.683Z,11.35
2023-06-16T21:46:07.152Z,15.15
2023-06-16T21:48:34.389Z,11.80
2023-06-16T21:51:01.596Z,13.15
2023-06-16T21:53:29.090Z,11.50
2023-06-16T21:55:56.300Z,11.13
2023-06-16T21:58:23.567Z,12.02
2023-06-16T22:00:50.985Z,12.50
2023-06-16T22:03:18.986Z,13.13
2023-06-16T22:05:46.341Z,11.05
2023-06-16T22:08:13.499Z,14.50
2023-06-16T22:10:42.275Z,10.73
2023-06-16T22:13:10.085Z,11.32
2023-06-16T22:15:37.344Z,13.48
2023-06-16T22:18:04.842Z,12.80
2023-06-16T22:20:32.526Z,11.38
2023-06-16T22:22:59.677Z,13.45
2023-06-16T22:25:26.894Z,11.75
2023-06-16T22:27:54.252Z,12.55
2023-06-16T22:30:22.235Z,12.10
2023-06-16T22:32:50.908Z,13.75
2023-06-16T22:35:18.227Z,16.98
2023-06-16T22:37:45.371Z,12.70
2023-06-16T22:40:13.019Z,12.95
2023-06-16T22:42:40.148Z,12.90
2023-06-16T22:45:08.079Z,16.08
2023-06-16T22:47:36.274Z,14.73
2023-06-16T22:50:03.986Z,13.55
2023-06-16T22:52:31.188Z,16.17
2023-06-16T22:54:58.339Z,13.30
2023-06-16T22:57:25.479Z,15.20
2023-06-16T22:59:52.695Z,14.70
2023-06-16T23:02:19.839Z,15.93
2023-06-16T23:04:47.508Z,15.82
2023-06-16T23:07:14.710Z,15.63
2023-06-16T23:09:42.027Z,14.90
2023-06-16T23:12:09.371Z,16.65
2023-06-16T23:14:36.528Z,15.02
2023-06-16T23:17:03.827Z,13.18
2023-06-16T23:19:31.596Z,16.80
2023-06-16T23:21:59.643Z,15.00
2023-06-16T23:24:26.855Z,17.95
2023-06-16T23:26:55.766Z,16.67
2023-06-16T23:29:23.385Z,17.27
2023-06-16T23:31:50.579Z,17.70
2023-06-16T23:34:18.231Z,17.75
2023-06-16T23:36:46.396Z,17.25
2023-06-16T23:39:13.577Z,16.13
2023-06-16T23:41:40.850Z,16.65
2023-06-16T23:44:08.790Z,15.82
2023-06-16T23:46:36.075Z,16.35
2023-06-16T23:49:03.252Z,15.70
2023-06-16T23:51:30.403Z,15.52
2023-06-16T23:53:57.542Z,16.38
2023-06-16T23:56:24.741Z,14.55
2023-06-16T23:58:52.066Z,14.65
